Jonesboro Municipal Airport Jonesboro US
ICAO: KJBR
IATA: JBR
Category: Medium
Scheduled Services: Yes

Elevation: 262 ft
TransAlt. 18000 ft.

Airport Communications:
ASOS:118.525
MEMPHIS CNTR:120.075
CTAF:123.6
RDO:122.2
UNICOM:123

KJBR Zoom In..

Runways:

(A) RW 05 length 6200 ft width 150 ft
---- / hdg 50

(B) RW 13 length 4099 ft width 150 ft
---- / hdg 135

(C) RW 23 length 6200 ft width 150 ft
ILS 110.15 / hdg 230

(D) RW 31 length 4099 ft width 150 ft
---- / hdg 315

Location; KJBR
Day. 24 / Time. 07.53 Zulu
* Altimeter: 30.05
* Temperature: 22° c. 71.6°f.
* Wind from: 000° Speed 00 kn.
Dewpoint: 21° c.
Visibility: 10 Statute Miles.
Clouds: Clear (automated report).

KJBR 240753Z AUTO 00000KT 10SM CLR 22/21 A3005 RMK AO2 SLP174 T02220211 $


Wind - Calm.

 
 
jpsmedia.com for Web Design SOUNDCLOUD worldairports.se 2018   terms of use